TimeEDT,TemperatureF,Dew PointF,Humidity,Sea Level PressureIn,VisibilityMPH,Wind Direction,Wind SpeedMPH,Gust SpeedMPH,PrecipitationIn,Events,Conditions,WindDirDegrees,DateUTC
12:00 AM,54.0,41.0,62,30.00,10.0,WNW,10.4,17.3,N/A,,Clear,290,2012-10-11 04:00:00
1:00 AM,51.1,37.9,61,30.02,10.0,WNW,10.4,-,N/A,,Clear,290,2012-10-11 05:00:00
2:00 AM,48.9,37.9,66,30.04,10.0,WNW,5.8,-,N/A,,Clear,290,2012-10-11 06:00:00
3:00 AM,48.0,39.0,71,30.06,10.0,West,9.2,-,N/A,,Clear,280,2012-10-11 07:00:00
3:22 AM,-9999,-9999,N/A,-9999,-9999.0,North,-9999.0,-,N/A,,Unknown,0,2012-10-11 07:22:00
4:00 AM,48.0,39.0,71,30.07,10.0,WNW,8.1,-,N/A,,Clear,300,2012-10-11 08:00:00
5:00 AM,48.0,37.0,66,30.11,10.0,WNW,8.1,-,N/A,,Clear,300,2012-10-11 09:00:00
6:00 AM,46.0,37.0,71,30.15,10.0,WNW,8.1,-,N/A,,Clear,300,2012-10-11 10:00:00
6:11 AM,-9999,-9999,N/A,-9999,-9999.0,North,-9999.0,-,N/A,,Unknown,0,2012-10-11 10:11:00
7:00 AM,45.0,35.1,68,30.17,10.0,NW,3.5,-,N/A,,Clear,310,2012-10-11 11:00:00
8:00 AM,46.9,35.1,63,30.20,10.0,West,8.1,-,N/A,,Clear,280,2012-10-11 12:00:00
9:00 AM,50.0,34.0,54,30.20,10.0,WNW,12.7,18.4,N/A,,Clear,300,2012-10-11 13:00:00
10:00 AM,52.0,32.0,47,30.22,10.0,WNW,15.0,21.9,N/A,,Clear,300,2012-10-11 14:00:00
11:00 AM,54.0,32.0,43,30.22,10.0,NNW,10.4,18.4,N/A,,Clear,330,2012-10-11 15:00:00
12:22 PM,-9999,-9999,N/A,-9999,-9999.0,North,-9999.0,-,N/A,,Unknown,0,2012-10-11 16:22:00
1:00 PM,57.0,32.0,39,30.20,10.0,WNW,6.9,-,N/A,,Clear,300,2012-10-11 17:00:00
2:00 PM,57.9,32.0,37,30.18,10.0,West,9.2,-,N/A,,Clear,270,2012-10-11 18:00:00
3:00 PM,59.0,32.0,36,30.18,10.0,WSW,8.1,17.3,N/A,,Clear,250,2012-10-11 19:00:00
4:00 PM,60.1,33.1,36,30.18,10.0,West,10.4,16.1,N/A,,Clear,260,2012-10-11 20:00:00
6:00 PM,55.9,37.0,49,30.17,10.0,SW,4.6,-,N/A,,Clear,220,2012-10-11 22:00:00
8:00 PM,45.0,39.0,80,30.18,10.0,WSW,6.9,-,N/A,,Clear,240,2012-10-12 00:00:00
9:00 PM,44.1,39.0,82,30.19,10.0,Calm,Calm,-,N/A,,Clear,0,2012-10-12 01:00:00
11:00 PM,39.9,37.9,93,30.19,10.0,SSW,3.5,-,N/A,,Clear,200,2012-10-12 03:00:00